createdAt,value
2022-07-30T00:00:02.238Z,87.78
2022-07-30T00:05:02.047Z,88.56
2022-07-30T00:10:01.884Z,88.52
2022-07-30T00:15:01.385Z,88.71
2022-07-30T00:20:01.421Z,89.08
2022-07-30T00:25:01.269Z,89.21
2022-07-30T00:30:01.474Z,89.48
2022-07-30T00:35:01.807Z,89.69
2022-07-30T00:40:01.350Z,89.82
2022-07-30T00:45:01.350Z,89.71
2022-07-30T00:50:01.379Z,89.85
2022-07-30T00:55:02.157Z,89.92
2022-07-30T01:00:01.670Z,90.03
2022-07-30T01:05:01.655Z,90.13
2022-07-30T01:10:01.759Z,90.2
2022-07-30T01:15:02.017Z,90.1
2022-07-30T01:20:02.075Z,90.2
2022-07-30T01:25:01.796Z,90.3
2022-07-30T01:30:01.571Z,90.18
2022-07-30T01:35:01.734Z,90.28
2022-07-30T01:40:01.411Z,90.43
2022-07-30T01:45:01.969Z,90.96
2022-07-30T01:50:01.230Z,91.71
2022-07-30T01:55:01.452Z,91.43
2022-07-30T02:00:02.042Z,91.39
2022-07-30T02:05:01.871Z,91.23
2022-07-30T02:10:01.447Z,91.56
2022-07-30T02:15:01.904Z,91.56
2022-07-30T02:20:01.201Z,91.85
2022-07-30T02:25:02.015Z,90.78
2022-07-30T02:30:01.643Z,90.36
2022-07-30T02:35:01.695Z,90.26
2022-07-30T02:40:01.427Z,88.91
2022-07-30T02:45:01.909Z,88.88
2022-07-30T02:50:01.661Z,89.28
2022-07-30T02:55:02.138Z,89.24
2022-07-30T03:00:01.289Z,89.97
2022-07-30T03:05:01.795Z,90.56
2022-07-30T03:10:01.802Z,90.92
2022-07-30T03:15:02.062Z,90.83
2022-07-30T03:20:01.617Z,91.41
2022-07-30T03:25:01.654Z,91.68
2022-07-30T03:30:01.921Z,91.9
2022-07-30T03:35:05.975Z,91.85
2022-07-30T03:40:01.813Z,91.08
2022-07-30T03:45:01.358Z,90.9
2022-07-30T03:50:01.641Z,90.63
2022-07-30T03:55:02.066Z,90.74
2022-07-30T04:00:01.244Z,91.03
2022-07-30T04:05:01.430Z,91.48
2022-07-30T04:10:01.943Z,92.1
2022-07-30T04:15:01.165Z,92.46
2022-07-30T04:20:01.903Z,92.67
2022-07-30T04:25:01.717Z,92.78
2022-07-30T04:30:01.355Z,92.59
2022-07-30T04:35:02.100Z,92.44
2022-07-30T04:40:01.308Z,92.58
2022-07-30T04:45:01.378Z,92.79
2022-07-30T04:50:01.340Z,91.54
2022-07-30T04:55:02.070Z,91.26
2022-07-30T05:00:01.199Z,91.24
2022-07-30T05:05:01.843Z,91.32
2022-07-30T05:10:01.916Z,90.81
2022-07-30T05:15:01.568Z,90.43
2022-07-30T05:20:01.700Z,90.16
2022-07-30T05:25:01.251Z,90
2022-07-30T05:30:01.166Z,90.1
2022-07-30T05:35:01.254Z,90.07
2022-07-30T05:40:02.804Z,89.81
2022-07-30T05:45:01.497Z,89.48
2022-07-30T05:50:05.047Z,89.52
2022-07-30T05:55:01.594Z,89.28
2022-07-30T06:00:02.052Z,88.6
2022-07-30T06:05:01.823Z,88.69
2022-07-30T06:10:01.622Z,88.46
2022-07-30T06:15:01.595Z,88.02
2022-07-30T06:20:01.200Z,86.95
2022-07-30T06:25:01.872Z,86.01
2022-07-30T06:30:01.746Z,82.41
2022-07-30T06:35:04.812Z,80.77
2022-07-30T06:40:01.808Z,79.25
2022-07-30T06:45:02.127Z,78.85
2022-07-30T06:50:01.670Z,77.61
2022-07-30T06:55:01.942Z,77.55
2022-07-30T07:00:01.357Z,77.21
2022-07-30T07:05:01.444Z,75.8
2022-07-30T07:10:01.203Z,74.84
2022-07-30T07:15:01.163Z,75.36
2022-07-30T07:20:02.745Z,75.99
2022-07-30T07:25:01.575Z,76.54
2022-07-30T07:30:05.240Z,74.59
2022-07-30T07:35:01.988Z,74.12
2022-07-30T07:40:01.763Z,72.62
2022-07-30T07:45:01.702Z,71.69
2022-07-30T07:50:01.311Z,72.57
2022-07-30T07:55:02.784Z,71.65
2022-07-30T08:00:01.777Z,72.06
2022-07-30T08:05:01.838Z,74.68
2022-07-30T08:10:01.458Z,72.32
2022-07-30T08:15:01.401Z,72.32
2022-07-30T08:20:01.433Z,70.9
2022-07-30T08:25:01.438Z,70.31
2022-07-30T08:30:01.260Z,71.26
2022-07-30T08:35:01.446Z,70.95
2022-07-30T08:40:01.908Z,69.76
2022-07-30T08:45:02.223Z,69.59
2022-07-30T08:50:01.505Z,73.69
2022-07-30T08:55:01.632Z,70.74
2022-07-30T09:00:02.112Z,72.72
2022-07-30T09:05:01.492Z,71.12
2022-07-30T09:10:01.210Z,68.92
2022-07-30T09:15:01.280Z,68.91
2022-07-30T09:20:01.405Z,69.26
2022-07-30T09:25:01.165Z,70.5
2022-07-30T09:30:01.239Z,71.21
2022-07-30T09:35:02.080Z,67.82
2022-07-30T09:40:01.160Z,65.98
2022-07-30T09:45:01.787Z,62.55
2022-07-30T09:50:07.067Z,64.38
2022-07-30T09:55:01.561Z,63.77
2022-07-30T10:00:01.763Z,62.49
2022-07-30T10:05:02.051Z,60.47
2022-07-30T10:10:01.775Z,63.63
2022-07-30T10:15:01.263Z,64.52
2022-07-30T10:20:03.093Z,63.07
2022-07-30T10:25:01.402Z,61.07
2022-07-30T10:30:03.564Z,61.84
2022-07-30T10:35:01.955Z,62.34
2022-07-30T10:40:01.761Z,60.32
2022-07-30T10:45:02.208Z,61.95
2022-07-30T10:50:02.251Z,60.99
2022-07-30T10:55:01.876Z,59.4
2022-07-30T11:00:04.102Z,58.4
2022-07-30T11:05:01.652Z,58.48
2022-07-30T11:10:05.587Z,54.67
2022-07-30T11:15:07.242Z,55.72
2022-07-30T11:20:01.557Z,55.31
2022-07-30T11:25:01.782Z,56.29
2022-07-30T11:30:02.142Z,49.2
2022-07-30T11:35:01.698Z,52.08
2022-07-30T11:40:01.856Z,51.56
2022-07-30T11:45:04.060Z,55.28
2022-07-30T11:50:01.330Z,54.43
2022-07-30T11:55:01.500Z,54.74
2022-07-30T12:00:01.725Z,55.27
2022-07-30T12:05:01.457Z,56.11
2022-07-30T12:10:02.096Z,52.31
2022-07-30T12:15:02.164Z,54.45
2022-07-30T12:20:02.032Z,54.96
2022-07-30T12:25:01.487Z,54.07
2022-07-30T12:30:01.594Z,53.77
2022-07-30T12:35:01.454Z,56.11
2022-07-30T12:40:01.286Z,53.84
2022-07-30T12:45:02.047Z,52.71
2022-07-30T12:50:02.186Z,50.51
2022-07-30T12:55:01.785Z,52.34
2022-07-30T13:00:01.163Z,50.86
2022-07-30T13:05:11.107Z,51.73
2022-07-30T13:10:01.386Z,50.39
2022-07-30T13:15:01.601Z,53.31
2022-07-30T13:20:01.666Z,51.99
2022-07-30T13:25:02.089Z,52.51
2022-07-30T13:30:01.976Z,52.25
2022-07-30T13:35:02.353Z,51.83
2022-07-30T13:40:01.495Z,53.35
2022-07-30T13:45:01.859Z,55.28
2022-07-30T13:50:01.940Z,53.49
2022-07-30T13:55:01.158Z,53.85
2022-07-30T14:00:02.115Z,55.89
2022-07-30T14:05:01.644Z,55.53
2022-07-30T14:10:01.665Z,51.85
2022-07-30T14:15:02.045Z,52.39
2022-07-30T14:20:01.369Z,53.32
2022-07-30T14:25:01.555Z,53.08
2022-07-30T14:30:02.167Z,52.45
2022-07-30T14:35:01.681Z,52.75
2022-07-30T14:40:01.314Z,50.89
2022-07-30T14:45:01.431Z,50.57
2022-07-30T14:50:02.149Z,52.49
2022-07-30T14:55:03.846Z,52.57
2022-07-30T15:00:01.970Z,52.51
2022-07-30T15:05:01.417Z,52.48
2022-07-30T15:10:01.264Z,53.78
2022-07-30T15:15:01.955Z,52.2
2022-07-30T15:20:01.961Z,52.86
2022-07-30T15:25:01.726Z,51.99
2022-07-30T15:30:01.455Z,50.76
2022-07-30T15:35:01.925Z,52.03
2022-07-30T15:40:01.642Z,50.82
2022-07-30T15:45:16.145Z,50.19
2022-07-30T15:50:02.036Z,51.77
2022-07-30T15:55:01.948Z,52.8
2022-07-30T16:00:01.179Z,51.82
2022-07-30T16:05:02.003Z,51.77
2022-07-30T16:10:01.984Z,52.69
2022-07-30T16:15:01.400Z,53.15
2022-07-30T16:20:01.456Z,53.72
2022-07-30T16:25:01.437Z,53.81
2022-07-30T16:30:01.753Z,52.51
2022-07-30T16:35:01.407Z,53.82
2022-07-30T16:40:01.904Z,55.9
2022-07-30T16:45:02.102Z,55.37
2022-07-30T16:50:01.180Z,57.06
2022-07-30T16:55:01.199Z,56.71
2022-07-30T17:00:01.153Z,55.73
2022-07-30T17:05:01.208Z,58.12
2022-07-30T17:10:02.021Z,57.01
2022-07-30T17:15:01.559Z,58.15
2022-07-30T17:20:01.590Z,59.34
2022-07-30T17:25:01.989Z,59.34
2022-07-30T17:30:01.732Z,59.79
2022-07-30T17:35:01.499Z,58.72
2022-07-30T17:40:29.820Z,59.53
2022-07-30T17:45:01.430Z,58.2
2022-07-30T17:50:01.490Z,57.07
2022-07-30T17:55:01.753Z,59.07
2022-07-30T18:00:01.534Z,59.19
2022-07-30T18:05:01.246Z,60
2022-07-30T18:10:01.183Z,60.6
2022-07-30T18:15:01.975Z,61.62
2022-07-30T18:20:01.721Z,63.07
2022-07-30T18:25:01.342Z,60.81
2022-07-30T18:30:02.123Z,62.78
2022-07-30T18:35:01.169Z,63.39
2022-07-30T18:40:01.397Z,63.07
2022-07-30T18:45:01.724Z,64.03
2022-07-30T18:50:01.293Z,65.05
2022-07-30T18:55:01.692Z,65.28
2022-07-30T19:00:02.062Z,65.43
2022-07-30T19:05:01.472Z,65.38
2022-07-30T19:10:01.520Z,65.58
2022-07-30T19:15:02.034Z,66
2022-07-30T19:20:01.891Z,65.76
2022-07-30T19:25:01.937Z,67.06
2022-07-30T19:30:01.954Z,69.79
2022-07-30T19:35:01.807Z,71.01
2022-07-30T19:45:04.242Z,71.72
2022-07-30T19:50:02.043Z,68.74
2022-07-30T19:55:01.265Z,68.52
2022-07-30T20:00:04.040Z,68.28
2022-07-30T20:05:02.117Z,69.64
2022-07-30T20:10:01.954Z,69.9
2022-07-30T20:15:02.015Z,70.13
2022-07-30T20:20:01.492Z,71.59
2022-07-30T20:25:01.536Z,70.68
2022-07-30T20:30:01.594Z,70.27
2022-07-30T20:35:01.327Z,71.19
2022-07-30T20:40:02.013Z,71.02
2022-07-30T20:45:01.605Z,71.47
2022-07-30T20:50:01.450Z,71.88
2022-07-30T20:55:01.664Z,71.91
2022-07-30T21:00:01.676Z,71.95
2022-07-30T21:05:01.392Z,71.92
2022-07-30T21:10:01.465Z,72.78
2022-07-30T21:15:02.017Z,72.46
2022-07-30T21:20:01.544Z,72.17
2022-07-30T21:25:01.414Z,72.17
2022-07-30T21:30:01.618Z,71.96
2022-07-30T21:35:01.445Z,71.39
2022-07-30T21:40:01.393Z,71.78
2022-07-30T21:45:01.564Z,73.48
2022-07-30T21:50:01.235Z,74.01
2022-07-30T21:55:04.273Z,74.94
2022-07-30T22:00:01.267Z,75.07
2022-07-30T22:05:02.194Z,75.41
2022-07-30T22:10:01.858Z,76.62
2022-07-30T22:15:01.423Z,75.79
2022-07-30T22:20:01.256Z,75.23
2022-07-30T22:25:01.851Z,75.38
2022-07-30T22:30:01.967Z,75.32
2022-07-30T22:35:01.287Z,75.3
2022-07-30T22:40:01.702Z,75.12
2022-07-30T22:45:01.422Z,74.54
2022-07-30T22:50:01.871Z,74.5
2022-07-30T22:55:09.025Z,73.14
2022-07-30T23:00:01.583Z,72.89
2022-07-30T23:05:03.042Z,72.81
2022-07-30T23:10:01.176Z,72.76
2022-07-30T23:12:16.555Z,70.99
2022-07-30T23:15:02.032Z,73.84
2022-07-30T23:20:01.414Z,74.72
2022-07-30T23:25:01.747Z,74.16
2022-07-30T23:30:01.952Z,72.96
2022-07-30T23:35:01.420Z,73.26
2022-07-30T23:40:01.705Z,73.46
2022-07-30T23:45:01.747Z,73.64
2022-07-30T23:50:01.352Z,74.52
2022-07-30T23:55:02.049Z,75.47
